Time;durP1;ratioP1;P1;durP2;ratioP2;P2;SDS_P1;SDS_P2;PMS_P1;PMS_P2;Temp;Humidity;BMP_temperature;BMP_pressure;BME280_temperature;BME280_humidity;BME280_pressure;Samples;Min_cycle;Max_cycle;Signal;HPM_P1;HPM_P2
2023/08/05 00:00:00;;;;;;;;;;;;;;;;;;1908196;28;7124;-64
2023/08/05 00:00:57;;;;;;;;;;;;;;;;;;1908379;28;7108;-65
2023/08/05 00:01:55;;;;;;;;;;;;;;;;;;1905247;28;8035;-64
2023/08/05 00:02:52;;;;;;;;;;;;;;;;;;1912063;28;7157;-65
2023/08/05 00:03:50;;;;;;;;;;;;;;;;;;1911621;28;7010;-65
2023/08/05 00:04:47;;;;;;;;;;;;;;;;;;1912187;28;8034;-64
2023/08/05 00:05:45;;;;;;;;;;;;;;;;;;1911878;28;7005;-64
2023/08/05 00:06:42;;;;;;;;;;;;;;;;;;1911494;28;7009;-65
2023/08/05 00:07:40;;;;;;;;;;;;;;;;;;1903303;28;8099;-64
2023/08/05 00:08:37;;;;;;;;;;;;;;;;;;1904179;28;7009;-64
2023/08/05 00:09:34;;;;;;;;;;;;;;;;;;1904562;28;7010;-65
2023/08/05 00:10:32;;;;;;;;;;;;;;;;;;1904929;28;7013;-64
2023/08/05 00:11:30;;;;;;;;;;;;;;;;;;1911034;28;7041;-64
2023/08/05 00:12:27;;;;;;;;;;;;;;;;;;1903749;28;7117;-65
2023/08/05 00:13:25;;;;;;;;;;;;;;;;;;1908025;28;7041;-64
2023/08/05 00:14:22;;;;;;;;;;;;;;;;;;1904055;28;7021;-64
2023/08/05 00:15:20;;;;;;;;;;;;;;;;;;1904096;28;8092;-64
2023/08/05 00:16:17;;;;;;;;;;;;;;;;;;1903861;28;7363;-64
2023/08/05 00:17:15;;;;;;;;;;;;;;;;;;1904788;28;7038;-65
2023/08/05 00:18:12;;;;;;;;;;;;;;;;;;1906927;28;7132;-64
2023/08/05 00:19:10;;;;;;;;;;;;;;;;;;1904466;28;7017;-64
2023/08/05 00:20:08;;;;;;;;;;;;;;;;;;1904507;28;7017;-64
2023/08/05 00:21:05;;;;;;;;;;;;;;;;;;1904335;28;7013;-65
2023/08/05 00:22:03;;;;;;;;;;;;;;;;;;1905803;28;7093;-64
2023/08/05 00:23:00;;;;;;;;;;;;;;;;;;1905829;28;7348;-65
2023/08/05 00:23:57;;;;;;;;;;;;;;;;;;1904849;28;7005;-65
2023/08/05 00:24:55;;;;;;;;;;;;;;;;;;1904655;28;7013;-65
2023/08/05 00:25:52;;;;;;;;;;;;;;;;;;1907869;28;7193;-64
2023/08/05 00:26:50;;;;;;;;;;;;;;;;;;1908709;28;7085;-64
2023/08/05 00:27:48;;;;;;;;;;;;;;;;;;1912000;28;7057;-64
2023/08/05 00:28:45;;;;;;;;;;;;;;;;;;1905142;28;7096;-64
2023/08/05 00:29:45;;;;;;;;;;;;;;;;;;1910397;28;8044;-64
2023/08/05 00:30:43;;;;;;;;;;;;;;;;;;1909527;28;7014;-64
2023/08/05 00:31:40;;;;;;;;;;;;;;;;;;1910953;28;7021;-64
2023/08/05 00:32:38;;;;;;;;;;;;;;;;;;1903328;28;7136;-65
2023/08/05 00:33:36;;;;;;;;;;;;;;;;;;1907792;28;7117;-65
2023/08/05 00:34:34;;;;;;;;;;;;;;;;;;1910487;28;7009;-64
2023/08/05 00:35:31;;;;;;;;;;;;;;;;;;1907466;28;7998;-64
2023/08/05 00:36:29;;;;;;;;;;;;;;;;;;1908972;28;7046;-64
2023/08/05 00:37:26;;;;;;;;;;;;;;;;;;1912380;28;7045;-65
2023/08/05 00:38:24;;;;;;;;;;;;;;;;;;1908021;28;7140;-64
2023/08/05 00:39:21;;;;;;;;;;;;;;;;;;1903494;28;7013;-64
2023/08/05 00:40:18;;;;;;;;;;;;;;;;;;1906805;28;7009;-65
2023/08/05 00:41:16;;;;;;;;;;;;;;;;;;1909726;28;7160;-64
2023/08/05 00:42:18;;;;;;;;;;;;;;;;;;1904718;28;7013;-64
2023/08/05 00:43:16;;;;;;;;;;;;;;;;;;1904411;28;7009;-64
2023/08/05 00:44:13;;;;;;;;;;;;;;;;;;1905107;28;7010;-64
2023/08/05 00:45:10;;;;;;;;;;;;;;;;;;1904162;28;7013;-65
2023/08/05 00:46:09;;;;;;;;;;;;;;;;;;1909255;28;7038;-65
2023/08/05 00:47:06;;;;;;;;;;;;;;;;;;1905780;28;7037;-66
2023/08/05 00:48:04;;;;;;;;;;;;;;;;;;1911750;28;7132;-65
2023/08/05 00:49:04;;;;;;;;;;;;;;;;;;1904593;28;7009;-65
2023/08/05 00:50:03;;;;;;;;;;;;;;;;;;1907756;28;7100;-67
2023/08/05 00:51:02;;;;;;;;;;;;;;;;;;1911630;28;7013;-65
2023/08/05 00:51:59;;;;;;;;;;;;;;;;;;1911465;28;7009;-65
2023/08/05 00:52:58;;;;;;;;;;;;;;;;;;1912517;28;8035;-65
2023/08/05 00:53:55;;;;;;;;;;;;;;;;;;1903688;28;7017;-65
2023/08/05 00:54:53;;;;;;;;;;;;;;;;;;1902615;28;7010;-65
2023/08/05 00:55:54;;;;;;;;;;;;;;;;;;1907294;28;7009;-68
2023/08/05 00:56:51;;;;;;;;;;;;;;;;;;1902903;28;7013;-65
2023/08/05 00:57:49;;;;;;;;;;;;;;;;;;1911181;28;7116;-65
2023/08/05 00:58:47;;;;;;;;;;;;;;;;;;1911737;28;8035;-65
2023/08/05 00:59:44;;;;;;;;;;;;;;;;;;1904379;28;7017;-65
2023/08/05 01:00:41;;;;;;;;;;;;;;;;;;1903616;28;7006;-65
2023/08/05 01:01:39;;;;;;;;;;;;;;;;;;1905986;28;7018;-65
2023/08/05 01:02:36;;;;;;;;;;;;;;;;;;1903762;28;7092;-66
2023/08/05 01:03:34;;;;;;;;;;;;;;;;;;1902995;28;7120;-66
2023/08/05 01:04:33;;;;;;;;;;;;;;;;;;1904401;28;8999;-66
2023/08/05 01:05:31;;;;;;;;;;;;;;;;;;1912522;28;8031;-66
2023/08/05 01:06:30;;;;;;;;;;;;;;;;;;1905916;28;7162;-65
2023/08/05 01:07:27;;;;;;;;;;;;;;;;;;1910314;28;7312;-65
2023/08/05 01:08:27;;;;;;;;;;;;;;;;;;1904210;28;7304;-65
2023/08/05 01:09:25;;;;;;;;;;;;;;;;;;1909152;28;7092;-66
2023/08/05 01:10:22;;;;;;;;;;;;;;;;;;1904969;28;7025;-65
2023/08/05 01:11:21;;;;;;;;;;;;;;;;;;1909278;28;7139;-66
2023/08/05 01:12:19;;;;;;;;;;;;;;;;;;1907736;28;8040;-65
2023/08/05 01:13:16;;;;;;;;;;;;;;;;;;1906461;28;7017;-66
2023/08/05 01:14:13;;;;;;;;;;;;;;;;;;1911004;28;7013;-65
2023/08/05 01:15:11;;;;;;;;;;;;;;;;;;1905572;28;7137;-65
2023/08/05 01:16:08;;;;;;;;;;;;;;;;;;1906970;28;7013;-65
2023/08/05 01:17:07;;;;;;;;;;;;;;;;;;1905808;28;8039;-65
2023/08/05 01:18:06;;;;;;;;;;;;;;;;;;1905698;28;7100;-65
2023/08/05 01:19:10;;;;;;;;;;;;;;;;;;1912236;28;7062;-66
2023/08/05 01:20:10;;;;;;;;;;;;;;;;;;1907497;28;8051;-65
2023/08/05 01:21:31;;;;;;;;;;;;;;;;;;1905490;28;7112;-65
2023/08/05 01:22:37;;;;;;;;;;;;;;;;;;1907575;28;7014;-65
2023/08/05 01:23:34;;;;;;;;;;;;;;;;;;1905174;28;7116;-65
2023/08/05 01:24:37;;;;;;;;;;;;;;;;;;1907264;28;7013;-65
2023/08/05 01:25:35;;;;;;;;;;;;;;;;;;1904231;28;7049;-66
2023/08/05 01:26:33;;;;;;;;;;;;;;;;;;1904828;28;7113;-65
2023/08/05 01:27:32;;;;;;;;;;;;;;;;;;1906089;28;7137;-65
2023/08/05 01:28:31;;;;;;;;;;;;;;;;;;1907715;28;7128;-65
2023/08/05 01:29:28;;;;;;;;;;;;;;;;;;1906961;28;8098;-65
2023/08/05 01:30:26;;;;;;;;;;;;;;;;;;1904796;28;7029;-65
2023/08/05 01:31:25;;;;;;;;;;;;;;;;;;1911344;28;7042;-65
2023/08/05 01:32:24;;;;;;;;;;;;;;;;;;1913375;28;7150;-67
2023/08/05 01:33:22;;;;;;;;;;;;;;;;;;1913216;28;7297;-67
2023/08/05 01:34:20;;;;;;;;;;;;;;;;;;1912970;28;7061;-67
2023/08/05 01:35:20;;;;;;;;;;;;;;;;;;1912798;28;8014;-67
2023/08/05 01:36:18;;;;;;;;;;;;;;;;;;1910470;28;7042;-68
2023/08/05 01:37:16;;;;;;;;;;;;;;;;;;1905293;28;8055;-67
2023/08/05 01:38:16;;;;;;;;;;;;;;;;;;1906902;28;7013;-65
2023/08/05 01:39:13;;;;;;;;;;;;;;;;;;1910537;28;7014;-65
2023/08/05 01:40:11;;;;;;;;;;;;;;;;;;1906290;28;8035;-64
2023/08/05 01:41:08;;;;;;;;;;;;;;;;;;1913184;28;7108;-65
2023/08/05 01:42:06;;;;;;;;;;;;;;;;;;1910238;28;7336;-65
2023/08/05 01:43:03;;;;;;;;;;;;;;;;;;1907027;28;7009;-65
2023/08/05 01:44:04;;;;;;;;;;;;;;;;;;1908942;28;7017;-65
2023/08/05 01:45:02;;;;;;;;;;;;;;;;;;1910858;28;7073;-65
2023/08/05 01:45:59;;;;;;;;;;;;;;;;;;1911775;28;7013;-65
2023/08/05 01:46:56;;;;;;;;;;;;;;;;;;1905654;28;7013;-65
2023/08/05 01:47:54;;;;;;;;;;;;;;;;;;1909416;28;7014;-65
2023/08/05 01:48:52;;;;;;;;;;;;;;;;;;1905780;28;7014;-65
2023/08/05 01:49:49;;;;;;;;;;;;;;;;;;1905852;28;7005;-65
2023/08/05 01:50:46;;;;;;;;;;;;;;;;;;1907802;28;7029;-65
2023/08/05 01:51:44;;;;;;;;;;;;;;;;;;1905176;28;7017;-65
2023/08/05 01:52:41;;;;;;;;;;;;;;;;;;1905647;28;8122;-65
2023/08/05 01:53:39;;;;;;;;;;;;;;;;;;1905351;28;7013;-65
2023/08/05 01:54:36;;;;;;;;;;;;;;;;;;1905112;28;7006;-65
2023/08/05 01:55:34;;;;;;;;;;;;;;;;;;1904492;28;7102;-65
2023/08/05 01:56:31;;;;;;;;;;;;;;;;;;1910596;28;7017;-65
2023/08/05 01:57:29;;;;;;;;;;;;;;;;;;1910261;28;7025;-66
2023/08/05 01:58:26;;;;;;;;;;;;;;;;;;1909461;28;7096;-65
2023/08/05 01:59:23;;;;;;;;;;;;;;;;;;1913656;28;8046;-65
2023/08/05 02:00:21;;;;;;;;;;;;;;;;;;1912530;28;7013;-65
2023/08/05 02:01:18;;;;;;;;;;;;;;;;;;1912834;28;7013;-67
2023/08/05 02:02:16;;;;;;;;;;;;;;;;;;1912793;28;7013;-65
2023/08/05 02:03:14;;;;;;;;;;;;;;;;;;1910801;28;7013;-65
2023/08/05 02:04:12;;;;;;;;;;;;;;;;;;1911848;28;7013;-65
2023/08/05 02:05:09;;;;;;;;;;;;;;;;;;1906432;28;7161;-67
2023/08/05 02:06:07;;;;;;;;;;;;;;;;;;1905600;28;7092;-69
2023/08/05 02:07:04;;;;;;;;;;;;;;;;;;1905129;28;7045;-67
2023/08/05 02:08:02;;;;;;;;;;;;;;;;;;1905641;28;7109;-65
2023/08/05 02:08:59;;;;;;;;;;;;;;;;;;1906933;28;7453;-65
2023/08/05 02:09:56;;;;;;;;;;;;;;;;;;1909708;28;7074;-66
2023/08/05 02:10:54;;;;;;;;;;;;;;;;;;1905936;28;7092;-65
2023/08/05 02:11:51;;;;;;;;;;;;;;;;;;1905342;28;7013;-65
2023/08/05 02:12:49;;;;;;;;;;;;;;;;;;1905683;28;7009;-65
2023/08/05 02:13:46;;;;;;;;;;;;;;;;;;1904942;28;7009;-65
2023/08/05 02:14:44;;;;;;;;;;;;;;;;;;1908383;28;7377;-67
2023/08/05 02:15:41;;;;;;;;;;;;;;;;;;1911451;28;7100;-67
2023/08/05 02:16:38;;;;;;;;;;;;;;;;;;1911747;28;7053;-66
2023/08/05 02:17:36;;;;;;;;;;;;;;;;;;1908252;28;8043;-65
2023/08/05 02:18:33;;;;;;;;;;;;;;;;;;1913394;28;7009;-65
2023/08/05 02:19:31;;;;;;;;;;;;;;;;;;1913585;28;7045;-64
2023/08/05 02:20:28;;;;;;;;;;;;;;;;;;1905599;28;7047;-65
2023/08/05 02:21:26;;;;;;;;;;;;;;;;;;1907570;28;8043;-64
2023/08/05 02:22:23;;;;;;;;;;;;;;;;;;1905801;28;9316;-65
2023/08/05 02:23:20;;;;;;;;;;;;;;;;;;1909220;28;7009;-65
2023/08/05 02:24:18;;;;;;;;;;;;;;;;;;1905279;28;7133;-64
2023/08/05 02:25:15;;;;;;;;;;;;;;;;;;1911367;28;7037;-65
2023/08/05 02:26:13;;;;;;;;;;;;;;;;;;1907940;28;7021;-65
2023/08/05 02:27:10;;;;;;;;;;;;;;;;;;1912723;28;7146;-64
2023/08/05 02:28:07;;;;;;;;;;;;;;;;;;1913162;28;7037;-64
2023/08/05 02:29:05;;;;;;;;;;;;;;;;;;1904116;28;7053;-64
2023/08/05 02:30:03;;;;;;;;;;;;;;;;;;1907171;28;7217;-65
2023/08/05 02:31:00;;;;;;;;;;;;;;;;;;1911227;28;7096;-65
2023/08/05 02:31:58;;;;;;;;;;;;;;;;;;1912607;28;7009;-64
2023/08/05 02:32:55;;;;;;;;;;;;;;;;;;1911735;28;8051;-64
2023/08/05 02:33:52;;;;;;;;;;;;;;;;;;1911711;28;7041;-64
2023/08/05 02:34:50;;;;;;;;;;;;;;;;;;1906944;28;7009;-66
2023/08/05 02:35:47;;;;;;;;;;;;;;;;;;1911692;28;7296;-67
2023/08/05 02:36:45;;;;;;;;;;;;;;;;;;1907687;28;7292;-67
2023/08/05 02:37:42;;;;;;;;;;;;;;;;;;1905491;28;7042;-67
2023/08/05 02:38:40;;;;;;;;;;;;;;;;;;1908535;28;7092;-67
2023/08/05 02:39:38;;;;;;;;;;;;;;;;;;1911025;28;7042;-66
2023/08/05 02:40:36;;;;;;;;;;;;;;;;;;1906593;28;7308;-65
2023/08/05 02:41:33;;;;;;;;;;;;;;;;;;1910442;28;7092;-65
2023/08/05 02:42:31;;;;;;;;;;;;;;;;;;1905354;28;7104;-66
2023/08/05 02:43:28;;;;;;;;;;;;;;;;;;1907264;28;7096;-67
2023/08/05 02:44:25;;;;;;;;;;;;;;;;;;1904937;28;7038;-67
2023/08/05 02:45:23;;;;;;;;;;;;;;;;;;1912524;28;7097;-64
2023/08/05 02:46:20;;;;;;;;;;;;;;;;;;1912626;28;7013;-67
2023/08/05 02:47:18;;;;;;;;;;;;;;;;;;1910001;28;7120;-67
2023/08/05 02:48:15;;;;;;;;;;;;;;;;;;1913192;28;8027;-67
2023/08/05 02:49:13;;;;;;;;;;;;;;;;;;1906414;28;7009;-67
2023/08/05 02:50:10;;;;;;;;;;;;;;;;;;1911072;28;7092;-65
2023/08/05 02:51:08;;;;;;;;;;;;;;;;;;1904228;28;7025;-65
2023/08/05 02:52:05;;;;;;;;;;;;;;;;;;1905588;28;7054;-65
2023/08/05 02:53:03;;;;;;;;;;;;;;;;;;1903637;28;8020;-67
2023/08/05 02:54:00;;;;;;;;;;;;;;;;;;1905216;28;7097;-66
2023/08/05 02:54:58;;;;;;;;;;;;;;;;;;1908906;28;7049;-67
2023/08/05 02:55:55;;;;;;;;;;;;;;;;;;1908394;28;7270;-66
2023/08/05 02:56:53;;;;;;;;;;;;;;;;;;1904868;28;7017;-67
2023/08/05 02:57:50;;;;;;;;;;;;;;;;;;1905337;28;8000;-67
2023/08/05 02:58:48;;;;;;;;;;;;;;;;;;1911789;28;7045;-67
2023/08/05 02:59:45;;;;;;;;;;;;;;;;;;1904578;28;7017;-67
2023/08/05 03:00:43;;;;;;;;;;;;;;;;;;1911325;28;7021;-67
2023/08/05 03:01:41;;;;;;;;;;;;;;;;;;1904936;28;7013;-67
2023/08/05 03:02:38;;;;;;;;;;;;;;;;;;1911497;28;7056;-67
2023/08/05 03:03:36;;;;;;;;;;;;;;;;;;1904797;28;7040;-67
2023/08/05 03:04:34;;;;;;;;;;;;;;;;;;1906841;28;7038;-66
2023/08/05 03:05:31;;;;;;;;;;;;;;;;;;1913558;28;7038;-67
2023/08/05 03:06:28;;;;;;;;;;;;;;;;;;1912562;28;8045;-67
2023/08/05 03:07:26;;;;;;;;;;;;;;;;;;1905305;28;7108;-67
2023/08/05 03:08:23;;;;;;;;;;;;;;;;;;1905794;28;8557;-68
2023/08/05 03:09:21;;;;;;;;;;;;;;;;;;1906799;28;7336;-67
2023/08/05 03:10:18;;;;;;;;;;;;;;;;;;1905633;28;7005;-67
2023/08/05 03:11:16;;;;;;;;;;;;;;;;;;1909939;28;7054;-65
2023/08/05 03:12:13;;;;;;;;;;;;;;;;;;1913342;28;7077;-67
2023/08/05 03:13:10;;;;;;;;;;;;;;;;;;1911199;28;7005;-65
2023/08/05 03:14:08;;;;;;;;;;;;;;;;;;1911006;28;7046;-65
2023/08/05 03:15:05;;;;;;;;;;;;;;;;;;1910529;28;7672;-65
2023/08/05 03:16:13;;;;;;;;;;;;;;;;;;1905207;28;7034;-67
2023/08/05 03:17:10;;;;;;;;;;;;;;;;;;1907108;28;7063;-67
2023/08/05 03:18:08;;;;;;;;;;;;;;;;;;1913432;28;7351;-66
2023/08/05 03:19:05;;;;;;;;;;;;;;;;;;1913635;28;7013;-67
2023/08/05 03:20:04;;;;;;;;;;;;;;;;;;1912631;28;7045;-65
2023/08/05 03:21:02;;;;;;;;;;;;;;;;;;1909152;28;7124;-65
2023/08/05 03:21:59;;;;;;;;;;;;;;;;;;1909221;28;8095;-65
2023/08/05 03:22:57;;;;;;;;;;;;;;;;;;1910860;28;7112;-65
2023/08/05 03:23:54;;;;;;;;;;;;;;;;;;1905993;28;7222;-65
2023/08/05 03:24:52;;;;;;;;;;;;;;;;;;1904895;28;7041;-65
2023/08/05 03:25:49;;;;;;;;;;;;;;;;;;1905134;28;7124;-65
2023/08/05 03:26:46;;;;;;;;;;;;;;;;;;1904332;28;7033;-65
2023/08/05 03:27:45;;;;;;;;;;;;;;;;;;1905382;28;7013;-65
2023/08/05 03:28:42;;;;;;;;;;;;;;;;;;1905241;28;7148;-64
2023/08/05 03:29:40;;;;;;;;;;;;;;;;;;1904883;28;7145;-65
2023/08/05 03:30:37;;;;;;;;;;;;;;;;;;1905363;28;7017;-64
2023/08/05 03:31:34;;;;;;;;;;;;;;;;;;1901643;28;8039;-67
2023/08/05 03:32:32;;;;;;;;;;;;;;;;;;1904777;28;7050;-65
2023/08/05 03:33:29;;;;;;;;;;;;;;;;;;1903402;28;7096;-65
2023/08/05 03:34:27;;;;;;;;;;;;;;;;;;1903543;28;7092;-65
2023/08/05 03:35:24;;;;;;;;;;;;;;;;;;1905572;28;7327;-65
2023/08/05 03:36:22;;;;;;;;;;;;;;;;;;1904997;28;7017;-65
2023/08/05 03:37:19;;;;;;;;;;;;;;;;;;1909572;28;7013;-65
2023/08/05 03:38:17;;;;;;;;;;;;;;;;;;1912824;28;7017;-65
2023/08/05 03:39:14;;;;;;;;;;;;;;;;;;1909438;28;7013;-65
2023/08/05 03:40:12;;;;;;;;;;;;;;;;;;1909556;28;8150;-65
2023/08/05 03:41:10;;;;;;;;;;;;;;;;;;1904204;28;7225;-65
2023/08/05 03:42:07;;;;;;;;;;;;;;;;;;1906149;28;7017;-65
2023/08/05 03:43:05;;;;;;;;;;;;;;;;;;1905297;28;7195;-64
2023/08/05 03:44:02;;;;;;;;;;;;;;;;;;1908423;28;7013;-65
2023/08/05 03:45:00;;;;;;;;;;;;;;;;;;1912580;28;7159;-65
2023/08/05 03:45:57;;;;;;;;;;;;;;;;;;1911802;28;7013;-65
2023/08/05 03:46:55;;;;;;;;;;;;;;;;;;1905324;28;7140;-65
2023/08/05 03:47:53;;;;;;;;;;;;;;;;;;1904457;28;7009;-65
2023/08/05 03:48:51;;;;;;;;;;;;;;;;;;1904973;28;7120;-65
2023/08/05 03:49:48;;;;;;;;;;;;;;;;;;1903664;28;7009;-65
2023/08/05 03:50:46;;;;;;;;;;;;;;;;;;1905149;28;7045;-65
2023/08/05 03:51:43;;;;;;;;;;;;;;;;;;1905009;28;7042;-65
2023/08/05 03:52:41;;;;;;;;;;;;;;;;;;1905236;28;7557;-65
2023/08/05 03:53:38;;;;;;;;;;;;;;;;;;1904438;28;8039;-65
2023/08/05 03:54:35;;;;;;;;;;;;;;;;;;1905665;28;7096;-64
2023/08/05 03:55:33;;;;;;;;;;;;;;;;;;1905025;28;7013;-64
2023/08/05 03:56:30;;;;;;;;;;;;;;;;;;1904749;28;7046;-65
2023/08/05 03:57:28;;;;;;;;;;;;;;;;;;1906668;28;7018;-64
2023/08/05 03:58:26;;;;;;;;;;;;;;;;;;1912220;28;7133;-64
2023/08/05 03:59:23;;;;;;;;;;;;;;;;;;1912178;28;7017;-65
2023/08/05 04:00:21;;;;;;;;;;;;;;;;;;1913054;28;7045;-65
2023/08/05 04:01:19;;;;;;;;;;;;;;;;;;1912739;28;7041;-65
2023/08/05 04:02:17;;;;;;;;;;;;;;;;;;1913018;28;7226;-65
2023/08/05 04:03:14;;;;;;;;;;;;;;;;;;1912102;28;7093;-64
2023/08/05 04:04:12;;;;;;;;;;;;;;;;;;1912124;28;7029;-65
2023/08/05 04:05:09;;;;;;;;;;;;;;;;;;1908557;28;7316;-65
2023/08/05 04:06:07;;;;;;;;;;;;;;;;;;1904807;28;7009;-65
2023/08/05 04:07:05;;;;;;;;;;;;;;;;;;1903847;28;7113;-65
2023/08/05 04:08:03;;;;;;;;;;;;;;;;;;1904750;28;7088;-65
2023/08/05 04:09:00;;;;;;;;;;;;;;;;;;1905191;28;7017;-65
2023/08/05 04:09:57;;;;;;;;;;;;;;;;;;1909571;28;7021;-65
2023/08/05 04:10:56;;;;;;;;;;;;;;;;;;1907094;28;7129;-65
2023/08/05 04:11:53;;;;;;;;;;;;;;;;;;1912623;28;7025;-65
2023/08/05 04:12:51;;;;;;;;;;;;;;;;;;1912671;28;7108;-65
2023/08/05 04:13:51;;;;;;;;;;;;;;;;;;1912747;28;7084;-65
2023/08/05 04:14:50;;;;;;;;;;;;;;;;;;1910203;28;7387;-64
2023/08/05 04:15:47;;;;;;;;;;;;;;;;;;1905070;28;8099;-65
2023/08/05 04:16:47;;;;;;;;;;;;;;;;;;1923097;28;8515;-65
2023/08/05 04:17:47;;;;;;;;;;;;;;;;;;1925047;28;7092;-65
2023/08/05 04:18:48;;;;;;;;;;;;;;;;;;1908627;28;8094;-65
2023/08/05 04:19:47;;;;;;;;;;;;;;;;;;1903589;28;7029;-65
2023/08/05 04:20:46;;;;;;;;;;;;;;;;;;1905646;28;8043;-65
2023/08/05 04:21:47;;;;;;;;;;;;;;;;;;1904792;28;7316;-65
2023/08/05 04:22:49;;;;;;;;;;;;;;;;;;1903790;28;7029;-65
2023/08/05 04:23:47;;;;;;;;;;;;;;;;;;1911586;28;7104;-65
2023/08/05 04:24:45;;;;;;;;;;;;;;;;;;1920827;28;7013;-65
2023/08/05 04:25:45;;;;;;;;;;;;;;;;;;1905654;28;7033;-65
2023/08/05 04:26:43;;;;;;;;;;;;;;;;;;1904949;28;7025;-65
2023/08/05 04:27:41;;;;;;;;;;;;;;;;;;1904400;28;7009;-64
2023/08/05 04:28:38;;;;;;;;;;;;;;;;;;1904089;28;7113;-65
2023/08/05 04:29:36;;;;;;;;;;;;;;;;;;1906242;28;7085;-64
2023/08/05 04:30:33;;;;;;;;;;;;;;;;;;1904302;28;7009;-65
2023/08/05 04:31:31;;;;;;;;;;;;;;;;;;1907022;28;7032;-64
2023/08/05 04:32:29;;;;;;;;;;;;;;;;;;1904190;28;7018;-65
2023/08/05 04:33:26;;;;;;;;;;;;;;;;;;1904934;28;7096;-65
2023/08/05 04:34:24;;;;;;;;;;;;;;;;;;1905179;28;7122;-65
2023/08/05 04:35:21;;;;;;;;;;;;;;;;;;1902571;28;7038;-65
2023/08/05 04:36:19;;;;;;;;;;;;;;;;;;1905366;28;7014;-65
2023/08/05 04:37:16;;;;;;;;;;;;;;;;;;1905704;28;7009;-65
2023/08/05 04:38:16;;;;;;;;;;;;;;;;;;1905269;28;7091;-65
2023/08/05 04:39:14;;;;;;;;;;;;;;;;;;1905055;28;7033;-65
2023/08/05 04:40:11;;;;;;;;;;;;;;;;;;1905366;28;7021;-65
2023/08/05 04:41:09;;;;;;;;;;;;;;;;;;1904568;28;7009;-64
2023/08/05 04:42:06;;;;;;;;;;;;;;;;;;1906160;28;8043;-65
2023/08/05 04:43:03;;;;;;;;;;;;;;;;;;1904412;28;7501;-65
2023/08/05 04:44:02;;;;;;;;;;;;;;;;;;1906511;28;7105;-65
2023/08/05 04:45:00;;;;;;;;;;;;;;;;;;1904770;28;7104;-65
2023/08/05 04:45:57;;;;;;;;;;;;;;;;;;1904214;28;7092;-65
2023/08/05 04:46:55;;;;;;;;;;;;;;;;;;1904966;28;7017;-65
2023/08/05 04:47:53;;;;;;;;;;;;;;;;;;1903605;28;7009;-64
2023/08/05 04:48:50;;;;;;;;;;;;;;;;;;1909175;28;7009;-65
2023/08/05 04:49:48;;;;;;;;;;;;;;;;;;1907526;28;7356;-65
2023/08/05 04:50:45;;;;;;;;;;;;;;;;;;1911128;28;7009;-65
2023/08/05 04:51:43;;;;;;;;;;;;;;;;;;1904478;28;7089;-65
2023/08/05 04:52:40;;;;;;;;;;;;;;;;;;1904316;28;7092;-65
2023/08/05 04:53:38;;;;;;;;;;;;;;;;;;1905163;28;7125;-64
2023/08/05 04:54:38;;;;;;;;;;;;;;;;;;1904333;28;7085;-65
2023/08/05 04:55:35;;;;;;;;;;;;;;;;;;1905666;28;7096;-67
2023/08/05 04:56:34;;;;;;;;;;;;;;;;;;1905000;28;7017;-64
2023/08/05 04:57:32;;;;;;;;;;;;;;;;;;1905561;28;7046;-65
2023/08/05 04:58:29;;;;;;;;;;;;;;;;;;1908446;28;7077;-65
2023/08/05 04:59:27;;;;;;;;;;;;;;;;;;1905157;28;8027;-65
2023/08/05 05:00:25;;;;;;;;;;;;;;;;;;1906240;28;7029;-64
2023/08/05 05:01:23;;;;;;;;;;;;;;;;;;1905193;28;7140;-65
2023/08/05 05:02:20;;;;;;;;;;;;;;;;;;1902612;28;7423;-65
2023/08/05 05:03:18;;;;;;;;;;;;;;;;;;1904557;28;7025;-65
2023/08/05 05:04:15;;;;;;;;;;;;;;;;;;1904215;28;7093;-65
2023/08/05 05:05:13;;;;;;;;;;;;;;;;;;1904888;28;7009;-65
2023/08/05 05:06:10;;;;;;;;;;;;;;;;;;1904359;28;7438;-62
2023/08/05 05:07:07;;;;;;;;;;;;;;;;;;1904797;28;7320;-64
2023/08/05 05:08:05;;;;;;;;;;;;;;;;;;1903657;28;7021;-62
2023/08/05 05:09:03;;;;;;;;;;;;;;;;;;1906549;28;8701;-64
2023/08/05 05:10:01;;;;;;;;;;;;;;;;;;1910725;28;8484;-63
2023/08/05 05:10:58;;;;;;;;;;;;;;;;;;1911661;28;7108;-62
2023/08/05 05:11:56;;;;;;;;;;;;;;;;;;1912336;28;7014;-63
2023/08/05 05:12:56;;;;;;;;;;;;;;;;;;1911717;28;7135;-63
2023/08/05 05:13:56;;;;;;;;;;;;;;;;;;1904942;28;7009;-63
2023/08/05 05:14:53;;;;;;;;;;;;;;;;;;1905148;28;7033;-63
2023/08/05 05:15:52;;;;;;;;;;;;;;;;;;1904531;28;7014;-63
2023/08/05 05:16:50;;;;;;;;;;;;;;;;;;1904695;28;7145;-63
2023/08/05 05:17:50;;;;;;;;;;;;;;;;;;1909322;28;7029;-63
2023/08/05 05:18:48;;;;;;;;;;;;;;;;;;1912408;28;7021;-63
2023/08/05 05:19:45;;;;;;;;;;;;;;;;;;1911191;28;7029;-63
2023/08/05 05:20:45;;;;;;;;;;;;;;;;;;1903256;28;7974;-63
2023/08/05 05:21:42;;;;;;;;;;;;;;;;;;1919002;28;7132;-63
2023/08/05 05:22:40;;;;;;;;;;;;;;;;;;1925954;28;7033;-63
2023/08/05 05:23:38;;;;;;;;;;;;;;;;;;1914382;28;7045;-63
2023/08/05 05:24:36;;;;;;;;;;;;;;;;;;1911734;28;7077;-63
2023/08/05 05:25:33;;;;;;;;;;;;;;;;;;1905037;28;7131;-63
2023/08/05 05:26:31;;;;;;;;;;;;;;;;;;1904231;28;7028;-63
2023/08/05 05:27:28;;;;;;;;;;;;;;;;;;1904701;28;7108;-63
2023/08/05 05:28:25;;;;;;;;;;;;;;;;;;1904578;28;7017;-63
2023/08/05 05:29:23;;;;;;;;;;;;;;;;;;1904366;28;7117;-64
2023/08/05 05:30:20;;;;;;;;;;;;;;;;;;1904105;28;8042;-63
2023/08/05 05:31:18;;;;;;;;;;;;;;;;;;1905089;28;8121;-63
2023/08/05 05:32:18;;;;;;;;;;;;;;;;;;1911354;28;7013;-63
2023/08/05 05:33:16;;;;;;;;;;;;;;;;;;1912267;28;7208;-63
2023/08/05 05:34:13;;;;;;;;;;;;;;;;;;1911988;28;7117;-63
2023/08/05 05:35:10;;;;;;;;;;;;;;;;;;1918596;28;7199;-63
2023/08/05 05:36:08;;;;;;;;;;;;;;;;;;1911799;28;8103;-64
2023/08/05 05:37:05;;;;;;;;;;;;;;;;;;1905175;28;7120;-63
2023/08/05 05:38:03;;;;;;;;;;;;;;;;;;1906620;28;7215;-64
2023/08/05 05:39:01;;;;;;;;;;;;;;;;;;1911083;28;8047;-63
2023/08/05 05:39:58;;;;;;;;;;;;;;;;;;1904541;28;8070;-63
2023/08/05 05:40:55;;;;;;;;;;;;;;;;;;1903192;28;7053;-63
2023/08/05 05:41:54;;;;;;;;;;;;;;;;;;1904460;28;7237;-63
2023/08/05 05:42:52;;;;;;;;;;;;;;;;;;1905036;28;7081;-63
2023/08/05 05:43:49;;;;;;;;;;;;;;;;;;1906441;28;7017;-64
2023/08/05 05:44:52;;;;;;;;;;;;;;;;;;1912019;28;7083;-63
2023/08/05 05:45:53;;;;;;;;;;;;;;;;;;1904289;28;7053;-63
2023/08/05 05:46:50;;;;;;;;;;;;;;;;;;1908659;28;7013;-64
2023/08/05 05:47:48;;;;;;;;;;;;;;;;;;1903408;28;7013;-67
2023/08/05 05:48:46;;;;;;;;;;;;;;;;;;1904525;28;7088;-64
2023/08/05 05:49:43;;;;;;;;;;;;;;;;;;1907072;28;7328;-64
2023/08/05 05:50:41;;;;;;;;;;;;;;;;;;1907636;28;8215;-68
2023/08/05 05:51:38;;;;;;;;;;;;;;;;;;1906511;28;7120;-67
2023/08/05 05:52:36;;;;;;;;;;;;;;;;;;1906058;28;7117;-67
2023/08/05 05:53:33;;;;;;;;;;;;;;;;;;1907579;28;7050;-65
2023/08/05 05:54:30;;;;;;;;;;;;;;;;;;1907077;28;7112;-64
2023/08/05 05:55:28;;;;;;;;;;;;;;;;;;1908095;28;7013;-64
2023/08/05 05:56:25;;;;;;;;;;;;;;;;;;1911356;28;7013;-64
2023/08/05 05:57:23;;;;;;;;;;;;;;;;;;1912361;28;8497;-64
2023/08/05 05:58:20;;;;;;;;;;;;;;;;;;1913556;28;7028;-64
2023/08/05 05:59:18;;;;;;;;;;;;;;;;;;1913656;28;7323;-63
2023/08/05 06:00:15;;;;;;;;;;;;;;;;;;1911445;28;7155;-64
2023/08/05 06:01:13;;;;;;;;;;;;;;;;;;1908287;28;7144;-65
2023/08/05 06:02:11;;;;;;;;;;;;;;;;;;1914027;28;7017;-64
2023/08/05 06:03:08;;;;;;;;;;;;;;;;;;1913608;28;7134;-66
2023/08/05 06:04:09;;;;;;;;;;;;;;;;;;1914061;28;7081;-68
2023/08/05 06:05:08;;;;;;;;;;;;;;;;;;1913686;28;7017;-71
2023/08/05 06:06:07;;;;;;;;;;;;;;;;;;1905657;28;8083;-70
2023/08/05 06:07:04;;;;;;;;;;;;;;;;;;1906027;28;7118;-66
2023/08/05 06:08:02;;;;;;;;;;;;;;;;;;1907059;28;8025;-67
2023/08/05 06:09:01;;;;;;;;;;;;;;;;;;1904632;28;7013;-69
2023/08/05 06:09:58;;;;;;;;;;;;;;;;;;1904923;28;8019;-71
2023/08/05 06:11:00;;;;;;;;;;;;;;;;;;1905666;28;7328;-69
2023/08/05 06:11:58;;;;;;;;;;;;;;;;;;1906151;28;7029;-67
2023/08/05 06:12:56;;;;;;;;;;;;;;;;;;1905645;28;7005;-66
2023/08/05 06:13:54;;;;;;;;;;;;;;;;;;1910708;28;7013;-65
2023/08/05 06:14:52;;;;;;;;;;;;;;;;;;1910621;28;7847;-67
2023/08/05 06:15:52;;;;;;;;;;;;;;;;;;1905459;28;7010;-66
2023/08/05 06:16:49;;;;;;;;;;;;;;;;;;1907297;28;7207;-67
2023/08/05 06:17:47;;;;;;;;;;;;;;;;;;1905377;28;7153;-68
2023/08/05 06:18:45;;;;;;;;;;;;;;;;;;1911246;28;7257;-65
2023/08/05 06:19:43;;;;;;;;;;;;;;;;;;1907793;28;7049;-64
2023/08/05 06:20:40;;;;;;;;;;;;;;;;;;1905766;28;7036;-66
2023/08/05 06:21:37;;;;;;;;;;;;;;;;;;1906918;28;8096;-65
2023/08/05 06:22:35;;;;;;;;;;;;;;;;;;1911209;28;7025;-70
2023/08/05 06:23:32;;;;;;;;;;;;;;;;;;1905733;28;7066;-65
2023/08/05 06:24:29;;;;;;;;;;;;;;;;;;1909021;28;7097;-66
2023/08/05 06:25:27;;;;;;;;;;;;;;;;;;1909981;28;7013;-64
2023/08/05 06:26:26;;;;;;;;;;;;;;;;;;1911524;28;7013;-66
2023/08/05 06:27:23;;;;;;;;;;;;;;;;;;1909086;28;7021;-65
2023/08/05 06:28:20;;;;;;;;;;;;;;;;;;1911236;28;7088;-66
2023/08/05 06:29:18;;;;;;;;;;;;;;;;;;1909930;28;7013;-64
2023/08/05 06:30:15;;;;;;;;;;;;;;;;;;1906142;28;7005;-66
2023/08/05 06:31:13;;;;;;;;;;;;;;;;;;1910320;28;7046;-66
2023/08/05 06:32:10;;;;;;;;;;;;;;;;;;1906888;28;8511;-65
2023/08/05 06:33:07;;;;;;;;;;;;;;;;;;1912154;28;7148;-65
2023/08/05 06:34:07;;;;;;;;;;;;;;;;;;1908863;28;7053;-65
2023/08/05 06:35:07;;;;;;;;;;;;;;;;;;1907015;28;7041;-65
2023/08/05 06:36:08;;;;;;;;;;;;;;;;;;1912010;28;7042;-66
2023/08/05 06:37:05;;;;;;;;;;;;;;;;;;1908330;28;7010;-65
2023/08/05 06:38:03;;;;;;;;;;;;;;;;;;1906019;28;8083;-66
2023/08/05 06:39:00;;;;;;;;;;;;;;;;;;1906260;28;8170;-66
2023/08/05 06:39:57;;;;;;;;;;;;;;;;;;1905658;28;7109;-66
2023/08/05 06:40:55;;;;;;;;;;;;;;;;;;1908131;28;7088;-68
2023/08/05 06:41:52;;;;;;;;;;;;;;;;;;1908814;28;7013;-66